Time;durP1;ratioP1;P1;durP2;ratioP2;P2;SDS_P1;SDS_P2;PMS_P1;PMS_P2;Temp;Humidity;BMP_temperature;BMP_pressure;BME280_temperature;BME280_humidity;BME280_pressure;Samples;Min_cycle;Max_cycle;Signal;HPM_P1;HPM_P2
2022/05/24 00:00:19;;;;;;;11.98;2.50;;;;;;;42.21;13.39;100450.91;5092374;28;20034;-64
2022/05/24 00:02:46;;;;;;;14.32;2.78;;;;;;;42.76;12.88;100447.47;5091779;28;20119;-64
2022/05/24 00:05:14;;;;;;;10.15;2.22;;;;;;;41.18;13.68;100452.53;5091825;28;20059;-65
2022/05/24 00:07:41;;;;;;;10.23;2.40;;;;;;;39.98;14.83;100456.91;5091833;28;20055;-65
2022/05/24 00:10:12;;;;;;;12.15;3.15;;;;;;;39.06;15.26;100444.47;5089378;28;20107;-64
2022/05/24 00:12:39;;;;;;;8.50;2.35;;;;;;;37.58;16.96;100456.00;5073024;28;20039;-65
2022/05/24 00:15:27;;;;;;;12.05;2.03;;;;;;;38.97;16.29;100445.25;5091710;28;20470;-65
2022/05/24 00:17:55;;;;;;;12.60;2.30;;;;;;;40.17;14.33;100447.06;5088446;28;20050;-64
2022/05/24 00:20:26;;;;;;;10.77;2.35;;;;;;;40.54;14.26;100444.97;5090500;28;20143;-65
2022/05/24 00:22:53;;;;;;;7.15;2.60;;;;;;;39.85;14.50;100452.09;5092079;28;20520;-66
2022/05/24 00:25:20;;;;;;;6.03;2.05;;;;;;;38.19;15.63;100440.50;5089188;28;20026;-65
2022/05/24 00:27:47;;;;;;;14.45;2.30;;;;;;;39.37;14.79;100442.41;5091450;28;20031;-65
2022/05/24 00:30:16;;;;;;;10.52;2.55;;;;;;;38.39;15.42;100440.16;5091496;28;20027;-64
2022/05/24 00:32:44;;;;;;;8.60;2.35;;;;;;;38.42;15.44;100444.09;5091621;28;20039;-62
2022/05/24 00:35:11;;;;;;;10.35;2.35;;;;;;;38.83;15.08;100434.44;5089254;28;20393;-63
2022/05/24 00:37:39;;;;;;;11.43;2.50;;;;;;;39.34;14.63;100442.53;5090489;28;20032;-63
2022/05/24 00:40:20;;;;;;;12.13;2.08;;;;;;;39.36;13.87;100434.34;5090271;28;20378;-67
2022/05/24 00:42:48;;;;;;;6.90;2.10;;;;;;;39.53;14.26;100427.13;5088369;28;20059;-65
2022/05/24 00:45:24;;;;;;;9.75;1.80;;;;;;;38.83;14.24;100425.91;5090261;28;20378;-66
2022/05/24 00:48:00;;;;;;;5.97;2.15;;;;;;;39.07;14.28;100424.09;5088479;28;20039;-65
2022/05/24 00:50:41;;;;;;;10.50;2.50;;;;;;;37.86;15.09;100430.75;5094327;28;20051;-65
2022/05/24 00:53:22;;;;;;;8.65;2.22;;;;;;;36.73;15.98;100427.53;5092978;28;20397;-65
2022/05/24 00:56:00;;;;;;;7.40;1.80;;;;;;;35.84;17.34;100433.72;5091135;28;20120;-65
2022/05/24 00:58:54;;;;;;;8.43;2.08;;;;;;;35.64;17.20;100433.81;5092207;28;20551;-65
2022/05/24 01:01:40;;;;;;;10.35;2.40;;;;;;;35.55;17.01;100428.00;5091270;28;20070;-64
2022/05/24 01:04:11;;;;;;;18.88;2.40;;;;;;;35.55;16.98;100428.00;5090818;28;20505;-64
2022/05/24 01:06:39;;;;;;;9.23;2.10;;;;;;;35.98;16.74;100429.72;5090800;28;20505;-65
2022/05/24 01:09:11;;;;;;;9.35;2.10;;;;;;;35.21;17.53;100436.91;5093467;28;20023;-65
2022/05/24 01:11:43;;;;;;;11.13;2.13;;;;;;;35.19;17.60;100436.56;5092356;28;20035;-65
2022/05/24 01:14:14;;;;;;;11.38;2.13;;;;;;;35.04;17.91;100427.63;5093561;28;20028;-65
2022/05/24 01:16:42;;;;;;;15.32;2.58;;;;;;;34.94;17.63;100437.13;5094716;28;20080;-64
2022/05/24 01:19:18;;;;;;;11.15;2.00;;;;;;;35.39;17.71;100442.94;5093283;28;20032;-63
2022/05/24 01:21:47;;;;;;;11.43;2.08;;;;;;;34.93;17.73;100431.91;5094740;28;20028;-64
2022/05/24 01:24:33;;;;;;;13.23;2.20;;;;;;;34.54;18.19;100431.53;5091102;28;20425;-63
2022/05/24 01:27:02;;;;;;;22.17;2.30;;;;;;;34.76;17.69;100431.06;5093331;28;20035;-64
2022/05/24 01:29:29;;;;;;;11.65;2.03;;;;;;;34.49;17.90;100428.44;5094951;28;20020;-65
2022/05/24 01:37:30;;;;;;;22.90;3.17;;;;;;;34.60;17.85;100431.03;5094419;28;20059;-64
2022/05/24 01:39:59;;;;;;;10.48;2.47;;;;;;;34.05;18.20;100432.53;5092639;28;20405;-64
2022/05/24 01:42:27;;;;;;;13.60;2.55;;;;;;;33.73;18.32;100428.25;5094356;28;20023;-65
2022/05/24 01:45:18;;;;;;;12.35;2.45;;;;;;;33.85;18.18;100427.66;5091477;28;20032;-66
2022/05/24 01:47:50;;;;;;;14.18;2.50;;;;;;;33.68;18.44;100431.56;5093803;28;20063;-65
2022/05/24 01:50:21;;;;;;;12.20;2.30;;;;;;;33.25;18.84;100423.03;5090351;28;20032;-65
2022/05/24 01:52:59;;;;;;;11.05;2.05;;;;;;;33.14;18.76;100419.59;5092929;28;20089;-66
2022/05/24 01:55:30;;;;;;;10.77;2.00;;;;;;;32.88;19.10;100418.38;5093827;28;20047;-65
2022/05/24 01:58:01;;;;;;;13.30;2.08;;;;;;;32.80;18.94;100428.94;5092348;28;20071;-66
2022/05/24 02:00:28;;;;;;;9.85;2.53;;;;;;;32.67;18.83;100419.44;5092886;28;20105;-64
2022/05/24 02:02:56;;;;;;;10.27;2.53;;;;;;;32.52;18.96;100421.66;5092532;28;20031;-64
2022/05/24 02:05:39;;;;;;;13.25;2.47;;;;;;;32.38;19.36;100430.28;5091776;28;20397;-64
2022/05/24 02:08:09;;;;;;;12.07;2.30;;;;;;;32.31;18.61;100433.16;5093581;28;20032;-65
2022/05/24 02:10:54;;;;;;;15.82;2.22;;;;;;;32.17;19.06;100432.13;5094722;28;20052;-65
2022/05/24 02:13:43;;;;;;;15.57;2.40;;;;;;;32.11;19.33;100432.97;5091286;28;20038;-65
2022/05/24 02:16:13;;;;;;;14.32;2.67;;;;;;;32.01;18.81;100443.13;5090659;28;20161;-65
2022/05/24 02:18:44;;;;;;;10.55;2.00;;;;;;;31.95;19.07;100439.16;5089495;28;20498;-64
2022/05/24 02:21:11;;;;;;;12.80;2.35;;;;;;;31.83;18.91;100445.34;5093800;28;20470;-67
2022/05/24 02:23:44;;;;;;;20.15;2.40;;;;;;;31.70;19.10;100441.41;5092230;28;20070;-67
2022/05/24 02:26:12;;;;;;;20.17;2.50;;;;;;;31.72;19.18;100451.03;5091375;28;20038;-64
2022/05/24 02:28:39;;;;;;;14.13;2.65;;;;;;;31.51;19.20;100446.38;5092159;28;20474;-67
2022/05/24 02:31:11;;;;;;;25.75;2.95;;;;;;;31.35;19.79;100454.53;5090247;28;20123;-64
2022/05/24 02:33:39;;;;;;;13.52;2.20;;;;;;;31.44;19.05;100445.66;5091623;28;20051;-65
2022/05/24 02:36:06;;;;;;;11.63;1.98;;;;;;;31.31;19.26;100453.78;5090731;28;20039;-64
2022/05/24 02:38:33;;;;;;;12.57;2.20;;;;;;;31.14;19.80;100449.06;5092333;28;20039;-64
2022/05/24 02:43:46;;;;;;;22.77;2.40;;;;;;;30.92;20.10;100459.63;5090485;28;20047;-66
2022/05/24 02:46:19;;;;;;;18.58;2.50;;;;;;;30.74;20.54;100464.53;5091932;28;20024;-65
2022/05/24 02:48:47;;;;;;;23.02;2.17;;;;;;;30.49;20.73;100457.00;5093217;28;20036;-64
2022/05/24 02:51:15;;;;;;;18.60;2.50;;;;;;;30.44;20.62;100462.22;5089741;28;20474;-64
2022/05/24 02:53:45;;;;;;;13.45;2.10;;;;;;;30.47;20.89;100467.03;5091095;28;20108;-64
2022/05/24 02:56:13;;;;;;;16.17;2.10;;;;;;;30.36;21.18;100470.69;5090294;28;20028;-64
2022/05/24 02:58:40;;;;;;;15.38;2.40;;;;;;;30.29;21.29;100472.69;5089755;28;20020;-63
2022/05/24 03:01:13;;;;;;;12.90;2.28;;;;;;;30.15;21.61;100478.34;5092786;28;20074;-64
2022/05/24 03:03:40;;;;;;;21.92;2.28;;;;;;;30.10;21.53;100482.34;5090494;28;20098;-63
2022/05/24 03:06:07;;;;;;;23.25;2.80;;;;;;;30.01;21.55;100485.56;5090815;28;20023;-64
2022/05/24 03:11:22;;;;;;;13.85;2.03;;;;;;;29.99;21.39;100487.16;5090332;28;20056;-64
2022/05/24 03:16:34;;;;;;;18.95;2.20;;;;;;;29.78;21.71;100487.97;5091704;28;20073;-63
2022/05/24 03:19:00;;;;;;;19.85;2.50;;;;;;;29.58;22.30;100484.78;5091008;28;20036;-65
2022/05/24 03:21:27;;;;;;;16.00;2.28;;;;;;;29.52;22.12;100486.38;5092318;28;20028;-65
2022/05/24 03:23:54;;;;;;;28.67;2.65;;;;;;;29.55;22.48;100485.56;5092278;28;20040;-65
2022/05/24 03:26:21;;;;;;;14.48;2.00;;;;;;;29.37;22.45;100485.53;5092676;28;20433;-65
2022/05/24 03:28:55;;;;;;;26.35;3.20;;;;;;;29.37;22.86;100495.94;5092297;28;20466;-66
2022/05/24 03:31:22;;;;;;;38.28;3.40;;;;;;;29.23;23.18;100501.50;5091558;28;20032;-66
2022/05/24 03:33:49;;;;;;;24.08;2.42;;;;;;;29.15;23.57;100495.91;5091750;28;20020;-66
2022/05/24 03:36:19;;;;;;;20.23;2.08;;;;;;;29.09;23.30;100496.69;5092310;28;20028;-64
2022/05/24 03:38:46;;;;;;;20.67;2.25;;;;;;;28.99;24.02;100503.84;5092533;28;20058;-66
2022/05/24 03:41:14;;;;;;;91.70;5.35;;;;;;;28.80;23.91;100506.97;5092513;28;20036;-64
2022/05/24 03:43:41;;;;;;;17.92;2.50;;;;;;;28.74;24.37;100505.75;5092089;28;20502;-65
2022/05/24 03:46:11;;;;;;;18.95;2.50;;;;;;;28.66;24.90;100507.69;5090554;28;20486;-64
2022/05/24 03:48:38;;;;;;;18.58;2.20;;;;;;;28.62;25.66;100506.88;5091610;28;20024;-64
2022/05/24 03:51:06;;;;;;;19.02;2.33;;;;;;;28.52;26.10;100508.44;5092597;28;20028;-64
2022/05/24 03:53:33;;;;;;;17.55;2.00;;;;;;;28.45;26.64;100511.19;5092560;28;20040;-63
2022/05/24 03:55:59;;;;;;;9.68;1.83;;;;;;;28.35;26.89;100513.94;5092277;28;20527;-63
2022/05/24 03:58:26;;;;;;;15.55;2.40;;;;;;;28.27;27.16;100511.09;5092259;28;20054;-62
2022/05/24 04:00:53;;;;;;;14.35;1.95;;;;;;;28.18;27.64;100518.97;5091266;28;20028;-63
2022/05/24 04:03:20;;;;;;;15.98;2.35;;;;;;;28.12;27.85;100530.94;5090631;28;20062;-63
2022/05/24 04:05:48;;;;;;;21.27;2.42;;;;;;;28.00;27.56;100532.81;5091039;28;20036;-63
2022/05/24 04:08:18;;;;;;;36.40;2.75;;;;;;;27.98;28.17;100540.81;5091701;28;20089;-63
2022/05/24 04:10:45;;;;;;;33.47;3.33;;;;;;;27.99;28.16;100536.00;5090940;28;20509;-64
2022/05/24 04:13:11;;;;;;;38.17;3.90;;;;;;;27.93;28.00;100538.38;5090900;28;20037;-64
2022/05/24 04:15:38;;;;;;;46.25;3.65;;;;;;;27.90;28.55;100535.56;5090957;28;20432;-65
2022/05/24 04:18:05;;;;;;;33.58;3.30;;;;;;;27.82;28.46;100537.47;5091945;28;20032;-64
2022/05/24 04:20:32;;;;;;;28.40;3.35;;;;;;;27.78;28.45;100542.22;5092526;28;20401;-64
2022/05/24 04:22:59;;;;;;;21.88;2.90;;;;;;;27.79;28.86;100537.44;5092235;28;20113;-63
2022/05/24 04:25:27;;;;;;;21.20;2.78;;;;;;;27.72;28.59;100554.97;5095669;28;20031;-63
2022/05/24 04:27:54;;;;;;;25.75;2.75;;;;;;;27.66;28.83;100557.31;5095946;28;20035;-62
2022/05/24 04:30:29;;;;;;;28.20;3.08;;;;;;;27.59;29.37;100562.78;5095852;28;20028;-64
2022/05/24 04:32:55;;;;;;;24.20;3.08;;;;;;;27.52;30.09;100556.34;5094101;28;20038;-64
2022/05/24 04:35:22;;;;;;;19.30;3.00;;;;;;;27.43;30.26;100564.19;5094407;28;20027;-63
2022/05/24 04:37:49;;;;;;;26.23;2.95;;;;;;;27.32;30.67;100564.91;5095647;28;20115;-63
2022/05/24 04:40:18;;;;;;;23.98;2.97;;;;;;;27.25;30.88;100564.81;5096054;28;20028;-63
2022/05/24 04:42:45;;;;;;;12.60;2.50;;;;;;;27.16;31.00;100567.13;5092478;28;20041;-63
2022/05/24 04:45:14;;;;;;;17.48;2.88;;;;;;;27.21;30.98;100563.19;5077216;28;20035;-64
2022/05/24 04:47:41;;;;;;;16.58;2.70;;;;;;;27.24;31.08;100563.22;5092949;28;20043;-64
2022/05/24 04:50:10;;;;;;;15.57;2.25;;;;;;;27.27;31.43;100573.59;5090990;28;20023;-64
2022/05/24 04:52:40;;;;;;;21.02;3.20;;;;;;;27.11;31.79;100573.03;5077325;28;20061;-64
2022/05/24 04:55:10;;;;;;;17.42;2.55;;;;;;;27.06;32.30;100584.53;5095130;28;20085;-64
2022/05/24 04:57:37;;;;;;;9.27;2.05;;;;;;;27.01;32.15;100580.09;5095232;28;20016;-64
2022/05/24 05:00:06;;;;;;;13.95;2.30;;;;;;;27.06;32.28;100576.16;5093156;28;20031;-65
2022/05/24 05:02:33;;;;;;;12.90;2.53;;;;;;;27.00;32.30;100574.88;5093868;28;20016;-63
2022/05/24 05:04:59;;;;;;;13.32;2.30;;;;;;;26.90;32.94;100576.31;5094712;28;20035;-64
2022/05/24 05:07:26;;;;;;;12.23;2.70;;;;;;;26.85;33.35;100579.44;5095153;28;20047;-63
2022/05/24 05:09:54;;;;;;;21.58;2.45;;;;;;;26.78;33.66;100585.75;5095425;28;20028;-64
2022/05/24 05:12:21;;;;;;;18.40;2.20;;;;;;;26.75;33.19;100580.94;5095429;28;20462;-65
2022/05/24 05:14:48;;;;;;;13.27;2.25;;;;;;;26.74;33.41;100579.28;5094759;28;20043;-64
2022/05/24 05:17:16;;;;;;;22.42;2.50;;;;;;;26.57;33.84;100582.66;5095010;28;20436;-63
2022/05/24 05:19:43;;;;;;;14.85;2.38;;;;;;;26.37;34.45;100592.28;5091878;28;20040;-64
2022/05/24 05:22:11;;;;;;;19.05;2.40;;;;;;;26.27;34.84;100584.56;5091985;28;20063;-63
2022/05/24 05:24:37;;;;;;;19.50;2.55;;;;;;;26.21;35.23;100584.06;5093334;28;20032;-64
2022/05/24 05:27:05;;;;;;;19.63;2.50;;;;;;;26.14;35.88;100584.75;5093415;28;20059;-64
2022/05/24 05:32:30;;;;;;;21.95;3.33;;;;;;;25.86;37.12;100584.31;5083960;28;20539;-65
2022/05/24 05:34:58;;;;;;;14.20;3.33;;;;;;;25.89;37.16;100580.78;5093189;28;20468;-63
2022/05/24 05:37:29;;;;;;;13.13;3.25;;;;;;;25.81;37.70;100570.69;5095319;28;20371;-64
2022/05/24 05:39:56;;;;;;;17.50;3.05;;;;;;;25.86;37.33;100567.59;5094905;28;20032;-64
2022/05/24 05:42:24;;;;;;;18.92;2.63;;;;;;;25.71;37.11;100583.25;5094942;28;20052;-64
2022/05/24 05:44:51;;;;;;;13.57;3.33;;;;;;;25.68;37.26;100584.00;5094501;28;20031;-63
2022/05/24 05:47:18;;;;;;;13.00;2.58;;;;;;;25.66;37.71;100582.69;5094620;28;20034;-64
2022/05/24 05:49:46;;;;;;;12.13;2.70;;;;;;;25.55;37.99;100586.09;5094933;28;20508;-64
2022/05/24 05:52:15;;;;;;;16.85;2.80;;;;;;;25.46;38.64;100579.97;5094613;28;20599;-64
2022/05/24 05:54:42;;;;;;;12.77;2.97;;;;;;;25.49;38.69;100576.44;5093485;28;20036;-64
2022/05/24 05:57:11;;;;;;;14.25;3.05;;;;;;;25.47;39.14;100581.56;5093708;28;20478;-64
2022/05/24 05:59:39;;;;;;;6.85;2.33;;;;;;;25.66;38.95;100577.13;5093001;28;20148;-63
2022/05/24 06:02:07;;;;;;;165.48;7.75;;;;;;;25.54;39.29;100581.72;5092926;28;20020;-65
2022/05/24 06:04:34;;;;;;;51.42;4.13;;;;;;;25.50;39.51;100582.84;5093154;28;20035;-64
2022/05/24 06:07:01;;;;;;;7.20;2.67;;;;;;;25.55;39.71;100585.31;5094468;28;20052;-63
2022/05/24 06:09:28;;;;;;;12.02;2.40;;;;;;;25.40;40.58;100578.66;5091933;28;20050;-66
2022/05/24 06:11:59;;;;;;;10.60;2.67;;;;;;;25.27;40.85;100569.66;5093578;28;20020;-66
2022/05/24 06:14:26;;;;;;;12.20;2.90;;;;;;;25.14;41.57;100586.91;5074401;28;20071;-64
2022/05/24 06:16:53;;;;;;;18.85;2.83;;;;;;;24.95;41.97;100579.31;5092427;28;20024;-64
2022/05/24 06:19:20;;;;;;;9.95;2.42;;;;;;;25.08;42.37;100577.22;5092441;28;20071;-64
2022/05/24 06:21:48;;;;;;;15.65;2.60;;;;;;;24.96;42.95;100578.97;5093330;28;20457;-64
2022/05/24 06:24:15;;;;;;;126.53;6.53;;;;;;;24.90;43.90;100582.38;5092386;28;20131;-63
2022/05/24 06:26:43;;;;;;;12.80;2.63;;;;;;;24.82;44.37;100578.66;5092515;28;20032;-62
2022/05/24 06:29:09;;;;;;;11.38;2.60;;;;;;;24.75;44.00;100575.72;5093463;28;20474;-62
2022/05/24 06:31:36;;;;;;;19.98;2.70;;;;;;;24.71;44.89;100580.41;5092543;28;20046;-62
2022/05/24 06:34:03;;;;;;;17.48;2.50;;;;;;;24.66;45.11;100569.56;5091980;28;20553;-64
2022/05/24 06:36:29;;;;;;;11.27;1.90;;;;;;;24.68;45.51;100576.38;5092618;28;20024;-63
2022/05/24 06:38:56;;;;;;;8.82;2.25;;;;;;;24.63;45.83;100586.97;5090216;28;20389;-64
2022/05/24 06:41:23;;;;;;;6.82;2.13;;;;;;;24.61;45.83;100575.44;5092259;28;20016;-63
2022/05/24 06:43:50;;;;;;;11.63;2.22;;;;;;;24.56;46.41;100578.47;5093751;28;20036;-65
2022/05/24 06:46:17;;;;;;;7.38;1.83;;;;;;;24.56;46.44;100579.28;5089413;28;20458;-61
2022/05/24 06:48:44;;;;;;;10.95;2.22;;;;;;;24.61;46.84;100580.97;5093868;28;20551;-63
2022/05/24 06:51:15;;;;;;;13.80;2.92;;;;;;;24.46;47.30;100588.19;5093321;28;20028;-63
2022/05/24 06:53:44;;;;;;;10.43;2.45;;;;;;;24.34;47.38;100593.84;5091659;28;20550;-63
2022/05/24 06:56:11;;;;;;;12.38;2.30;;;;;;;24.29;47.85;100591.34;5092602;28;20039;-64
2022/05/24 06:58:39;;;;;;;9.15;2.20;;;;;;;24.28;48.34;100590.50;5093375;28;20043;-64
2022/05/24 07:03:53;;;;;;;9.60;2.33;;;;;;;24.09;49.40;100593.22;5092687;28;20024;-64
2022/05/24 07:06:25;;;;;;;11.73;2.35;;;;;;;24.14;49.00;100584.63;5093352;28;20047;-64
2022/05/24 07:08:52;;;;;;;8.45;2.42;;;;;;;24.08;49.62;100594.38;5093223;28;20085;-63
2022/05/24 07:11:21;;;;;;;11.38;2.58;;;;;;;24.04;49.69;100579.59;5093251;28;20436;-65
2022/05/24 07:13:48;;;;;;;12.15;2.30;;;;;;;23.98;49.86;100575.47;5093062;28;20063;-64
2022/05/24 07:16:14;;;;;;;10.38;2.13;;;;;;;24.00;50.63;100578.72;5092933;28;20024;-64
2022/05/24 07:18:41;;;;;;;7.40;2.25;;;;;;;23.95;50.42;100574.25;5091581;28;20044;-63
2022/05/24 07:21:09;;;;;;;13.75;2.25;;;;;;;23.85;50.75;100576.72;5092773;28;20026;-63
2022/05/24 07:23:37;;;;;;;9.43;2.40;;;;;;;23.81;51.33;100576.66;5091880;28;20035;-63
2022/05/24 07:26:16;;;;;;;11.18;2.30;;;;;;;23.72;51.54;100578.81;5091740;28;20044;-64
2022/05/24 07:28:43;;;;;;;9.85;1.95;;;;;;;23.72;52.11;100579.63;5091043;28;20027;-64
2022/05/24 07:31:11;;;;;;;11.43;2.10;;;;;;;23.70;52.02;100575.59;5092669;28;20020;-63
2022/05/24 07:33:38;;;;;;;10.90;2.25;;;;;;;23.56;52.97;100575.19;5090034;28;20047;-64
2022/05/24 07:36:06;;;;;;;10.95;2.22;;;;;;;23.48;53.22;100582.47;5092596;28;20024;-63
2022/05/24 07:38:34;;;;;;;8.40;2.10;;;;;;;23.56;53.37;100578.75;5092819;28;20032;-64
2022/05/24 07:46:31;;;;;;;21.23;2.50;;;;;;;23.37;53.95;100573.09;5092037;28;20080;-64
2022/05/24 07:48:58;;;;;;;9.40;2.28;;;;;;;23.41;54.23;100579.53;5089544;28;20024;-63
2022/05/24 07:51:25;;;;;;;6.60;1.90;;;;;;;23.34;54.13;100571.00;5091239;28;20176;-63
2022/05/24 07:53:52;;;;;;;5.85;2.03;;;;;;;23.34;54.27;100576.53;5092569;28;20028;-63
2022/05/24 07:56:19;;;;;;;9.75;2.42;;;;;;;23.15;55.10;100572.47;5092276;28;20119;-63
2022/05/24 07:58:46;;;;;;;12.15;2.20;;;;;;;23.11;55.10;100571.56;5091713;28;20099;-62
2022/05/24 08:01:16;;;;;;;10.00;2.35;;;;;;;23.00;55.00;100578.00;5092236;28;20023;-63
2022/05/24 08:03:43;;;;;;;7.30;2.15;;;;;;;23.06;54.93;100569.06;5092232;28;20066;-63
2022/05/24 08:06:10;;;;;;;10.02;2.35;;;;;;;23.14;55.14;100573.63;5068852;28;20085;-63
2022/05/24 08:08:37;;;;;;;9.63;2.30;;;;;;;23.05;55.47;100573.00;5088169;28;20028;-64
2022/05/24 08:11:05;;;;;;;12.70;2.50;;;;;;;22.99;55.36;100566.09;5090945;28;20028;-63
2022/05/24 08:13:31;;;;;;;9.40;2.25;;;;;;;23.03;55.05;100567.00;5092230;28;20016;-63
2022/05/24 08:15:58;;;;;;;10.82;2.60;;;;;;;23.00;55.19;100564.94;5090990;28;20039;-63
2022/05/24 08:18:25;;;;;;;10.13;2.20;;;;;;;23.01;54.98;100566.53;5092019;28;20502;-63
2022/05/24 08:20:54;;;;;;;10.70;2.22;;;;;;;23.04;55.08;100565.03;5070948;28;20502;-64
2022/05/24 08:23:23;;;;;;;13.25;2.45;;;;;;;23.04;55.48;100567.81;5092250;28;20020;-63
2022/05/24 08:25:50;;;;;;;17.95;2.65;;;;;;;22.97;55.41;100565.63;5092153;28;20028;-63
2022/05/24 08:28:17;;;;;;;13.85;2.38;;;;;;;22.91;55.10;100561.50;5086751;28;20526;-64
2022/05/24 08:30:44;;;;;;;8.07;2.15;;;;;;;22.93;55.96;100559.16;5092218;28;20016;-63
2022/05/24 08:33:14;;;;;;;6.30;1.95;;;;;;;22.81;56.03;100559.19;5073924;28;20043;-63
2022/05/24 08:35:43;;;;;;;9.93;2.42;;;;;;;22.85;56.36;100560.94;5092033;28;20509;-62
2022/05/24 08:38:10;;;;;;;24.35;2.55;;;;;;;22.81;55.87;100560.00;5091098;28;20082;-63
2022/05/24 08:40:40;;;;;;;11.45;2.47;;;;;;;22.85;56.42;100551.81;5089470;28;20032;-63
2022/05/24 08:43:51;;;;;;;13.90;2.53;;;;;;;22.80;55.79;100560.31;5090709;28;20394;-64
2022/05/24 08:49:17;;;;;;;8.50;2.65;;;;;;;22.75;56.54;100568.91;5091205;28;20509;-63
2022/05/24 08:51:58;;;;;;;9.27;2.25;;;;;;;22.72;57.50;100558.53;5092011;28;20089;-63
2022/05/24 08:54:39;;;;;;;9.82;2.40;;;;;;;22.65;57.88;100558.31;5087358;28;20071;-63
2022/05/24 08:57:10;;;;;;;7.88;2.10;;;;;;;22.64;58.24;100560.28;5090431;28;20028;-64
2022/05/24 08:59:45;;;;;;;13.10;2.65;;;;;;;22.64;58.58;100562.25;5089125;28;20039;-64
2022/05/24 09:02:13;;;;;;;7.32;2.58;;;;;;;22.63;58.10;100563.41;5091791;28;20027;-64
2022/05/24 09:04:40;;;;;;;11.48;3.28;;;;;;;22.65;58.59;100558.31;5091629;28;20095;-63
2022/05/24 09:07:31;;;;;;;11.65;3.10;;;;;;;22.60;58.40;100562.91;5091637;28;20024;-64
2022/05/24 09:10:10;;;;;;;11.98;3.50;;;;;;;22.66;58.55;100559.94;5091421;28;20077;-63
2022/05/24 09:12:58;;;;;;;13.05;3.60;;;;;;;22.61;58.55;100567.31;5092973;28;20028;-64
2022/05/24 09:15:46;;;;;;;10.30;3.00;;;;;;;22.57;58.98;100569.16;5092567;28;20055;-64
2022/05/24 09:18:43;;;;;;;11.40;3.25;;;;;;;22.53;58.95;100573.78;5094731;28;20046;-64
2022/05/24 09:21:22;;;;;;;13.38;4.00;;;;;;;22.50;59.48;100574.50;5095806;28;20039;-63
2022/05/24 09:23:58;;;;;;;14.15;3.85;;;;;;;22.41;59.23;100561.94;5095656;28;20075;-63
2022/05/24 09:26:25;;;;;;;11.32;4.22;;;;;;;22.46;59.67;100564.47;5095631;28;20028;-63
2022/05/24 09:28:57;;;;;;;9.88;3.85;;;;;;;22.42;59.69;100561.56;5095348;28;20019;-64
2022/05/24 09:31:44;;;;;;;13.00;4.10;;;;;;;22.44;59.79;100564.81;5095724;28;20028;-64
2022/05/24 09:34:19;;;;;;;14.93;4.13;;;;;;;22.37;59.62;100580.41;5086627;28;20061;-63
2022/05/24 09:37:02;;;;;;;22.08;4.25;;;;;;;22.35;59.11;100571.63;5095525;28;20390;-63
2022/05/24 09:39:35;;;;;;;12.50;3.40;;;;;;;22.32;59.89;100578.69;5094154;28;20089;-63
2022/05/24 09:42:03;;;;;;;9.88;3.33;;;;;;;22.28;59.82;100572.22;5095154;28;20397;-63
2022/05/24 09:44:51;;;;;;;10.00;2.80;;;;;;;22.26;60.58;100580.03;5095200;28;20028;-63
2022/05/24 09:47:34;;;;;;;12.48;2.50;;;;;;;22.25;60.29;100576.47;5094766;28;20032;-63
2022/05/24 09:50:30;;;;;;;11.43;2.50;;;;;;;22.20;60.68;100578.66;5095094;28;20032;-64
2022/05/24 09:53:27;;;;;;;9.85;2.60;;;;;;;22.11;61.22;100578.00;5095051;28;20060;-63
2022/05/24 09:55:59;;;;;;;12.75;3.20;;;;;;;21.98;60.70;100574.38;5089198;28;20052;-64
2022/05/24 09:58:27;;;;;;;12.63;4.68;;;;;;;22.02;60.45;100570.56;5095067;28;20111;-63
2022/05/24 10:01:27;;;;;;;10.35;4.57;;;;;;;21.95;60.68;100584.19;5083433;28;20447;-64
2022/05/24 10:04:31;;;;;;;10.85;4.47;;;;;;;21.97;60.43;100583.84;5094650;28;20039;-64
2022/05/24 10:07:03;;;;;;;11.27;4.65;;;;;;;21.93;60.67;100592.03;5086796;28;20113;-63
2022/05/24 10:09:43;;;;;;;18.02;4.65;;;;;;;21.86;61.14;100589.00;5094762;28;20513;-63
2022/05/24 10:12:28;;;;;;;9.95;3.90;;;;;;;21.89;61.33;100598.56;5078434;28;20025;-63
2022/05/24 10:15:22;;;;;;;11.98;3.70;;;;;;;21.75;61.90;100598.91;5094485;28;20093;-63
2022/05/24 10:18:08;;;;;;;11.68;3.65;;;;;;;21.68;62.44;100587.59;5094418;28;20566;-64
2022/05/24 10:20:55;;;;;;;14.00;4.00;;;;;;;21.76;62.59;100589.47;5094647;28;20039;-64
2022/05/24 10:23:43;;;;;;;12.70;4.90;;;;;;;21.65;62.74;100586.31;5094029;28;20032;-64
2022/05/24 10:26:45;;;;;;;16.67;5.60;;;;;;;21.58;63.72;100605.44;5078021;28;20394;-63
2022/05/24 10:29:38;;;;;;;10.13;4.35;;;;;;;21.53;63.59;100604.81;5051055;28;20048;-63
2022/05/24 10:38:23;;;;;;;31.42;11.73;;;;;;;21.48;63.73;100625.22;5078015;28;20036;-64
2022/05/24 10:41:17;;;;;;;21.00;6.60;;;;;;;21.47;63.49;100623.59;5094241;28;20115;-63
2022/05/24 10:43:49;;;;;;;15.20;5.45;;;;;;;21.48;62.92;100622.44;5093925;28;20036;-63
2022/05/24 10:46:26;;;;;;;10.20;5.20;;;;;;;21.47;62.86;100608.97;5093893;28;20028;-64
2022/05/24 10:49:06;;;;;;;16.30;4.55;;;;;;;21.45;62.44;100622.31;5094023;28;20038;-63
2022/05/24 10:51:48;;;;;;;14.23;4.25;;;;;;;21.36;61.35;100614.94;5094178;28;20067;-63
2022/05/24 10:54:53;;;;;;;8.75;3.38;;;;;;;21.41;59.40;100617.47;5078063;28;20085;-63
2022/05/24 10:57:26;;;;;;;11.20;3.25;;;;;;;21.34;58.25;100619.97;5093756;28;20032;-64
2022/05/24 11:00:12;;;;;;;14.30;3.30;;;;;;;21.34;57.02;100628.25;5092539;28;20486;-63
2022/05/24 11:02:47;;;;;;;9.73;2.70;;;;;;;21.32;56.11;100629.75;5093886;28;20039;-64
2022/05/24 11:05:56;;;;;;;10.32;3.00;;;;;;;21.27;54.64;100622.50;5086322;28;20339;-63
2022/05/24 11:08:48;;;;;;;10.77;3.00;;;;;;;21.19;53.40;100620.59;5011518;28;20436;-62
2022/05/24 11:11:41;;;;;;;34.08;3.72;;;;;;;21.01;53.52;100619.94;5023966;28;20555;-62
2022/05/24 11:14:31;;;;;;;13.23;3.10;;;;;;;20.93;52.92;100628.28;5068340;28;20044;-62
2022/05/24 11:16:58;;;;;;;10.20;2.45;;;;;;;21.09;51.76;100634.81;5084130;28;20456;-63
2022/05/24 11:19:39;;;;;;;8.82;2.40;;;;;;;21.06;51.30;100627.19;5093318;28;20056;-63
2022/05/24 11:22:22;;;;;;;11.60;2.95;;;;;;;20.93;51.25;100631.84;5093307;28;20032;-63
2022/05/24 11:25:22;;;;;;;9.60;3.90;;;;;;;20.91;51.32;100625.84;5093395;28;20066;-62
2022/05/24 11:28:07;;;;;;;11.75;4.80;;;;;;;20.86;51.37;100628.81;5093362;28;20032;-63
2022/05/24 11:30:40;;;;;;;11.68;3.83;;;;;;;20.80;51.56;100630.94;5093328;28;20028;-62
2022/05/24 11:33:25;;;;;;;21.05;3.58;;;;;;;20.78;51.63;100641.53;5091330;28;20498;-62
2022/05/24 11:35:52;;;;;;;39.55;4.38;;;;;;;20.80;51.70;100647.53;5093138;28;20044;-62
2022/05/24 11:38:38;;;;;;;11.77;3.10;;;;;;;20.72;52.21;100634.59;5092067;28;20028;-62
2022/05/24 11:41:12;;;;;;;9.13;3.05;;;;;;;20.73;52.41;100647.25;5093041;28;20382;-63
2022/05/24 11:43:44;;;;;;;10.93;2.80;;;;;;;20.69;52.70;100640.78;5093227;28;20390;-62
2022/05/24 11:46:46;;;;;;;10.70;3.13;;;;;;;20.68;52.82;100650.22;5076649;28;20642;-62
2022/05/24 11:49:21;;;;;;;9.93;3.08;;;;;;;20.61;53.12;100655.44;5049070;28;20078;-62
2022/05/24 11:51:49;;;;;;;9.77;3.10;;;;;;;20.59;53.37;100643.13;5092948;28;20036;-62
2022/05/24 11:54:19;;;;;;;7.60;3.00;;;;;;;20.59;53.52;100645.88;5093003;28;20013;-63
2022/05/24 11:56:54;;;;;;;11.80;3.08;;;;;;;20.54;53.75;100651.59;5092937;28;20028;-62
2022/05/24 11:59:47;;;;;;;11.63;3.38;;;;;;;20.50;54.15;100652.28;5092871;28;20054;-63
2022/05/24 12:02:27;;;;;;;7.65;3.53;;;;;;;20.52;54.23;100657.47;5091498;28;20439;-64
2022/05/24 12:07:55;;;;;;;18.60;7.38;;;;;;;20.45;54.61;100669.00;5092843;28;20437;-64
2022/05/24 12:10:22;;;;;;;29.95;16.38;;;;;;;20.49;54.85;100666.41;5091701;28;20109;-64
2022/05/24 12:13:13;;;;;;;29.80;26.58;;;;;;;20.46;54.98;100669.81;5092753;28;20114;-63
2022/05/24 12:15:40;;;;;;;20.40;14.10;;;;;;;20.38;55.28;100679.72;5091474;28;20032;-62
2022/05/24 12:18:07;;;;;;;17.35;9.18;;;;;;;20.28;55.82;100671.00;5075718;28;20023;-64
2022/05/24 12:20:33;;;;;;;16.52;8.32;;;;;;;20.26;56.07;100681.56;5092652;28;20024;-64